Terminal Aerodrome Forecast
Issued by NWS

Home | Current Version | Previous Version | Text Only | Print | Product List | Glossary Off
Versions: 1 2 3 4 5 6 7 8 9 10 11 12 13 14 15 16 17 18 19 20 21 22 23 24

000
FTUS43 KBIS 212338
TAFDIK
TAF
KDIK 212338Z 2200/2224 32003KT P6SM SKC
     FM220600 17009KT P6SM SCT250
     FM221000 19011KT P6SM BKN080
     FM221500 25013KT P6SM BKN150
     FM221700 28018G28KT P6SM SCT200
     FM222300 31014G22KT P6SM FEW250=

USA.gov is the U.S. government's official web portal to all federal, state and local government web resources and services.